CheckWX is a tool to help pilots better visualize weather data.  It is not intended as a substitute for an official pre-flight weather briefing.

07:36:55 UTC

KMUI METAR
Muir Army Air Field (Fort Indiantown Gap) Airport
Fort Indiantown Gap(Annville), Pennsylvania, USA
Current

41 mins ago

KMUI 140656Z AUTO 00000KT 10SM CLR 20/13 A2993 RMK AO2 SLP135 T01990133
Observed
Jul-14 @ 06:56 UTC
Visibility
10 SM
Flight Rules
VFR
Cloud Levels
  • Clear skies
Temperature
20°C / 68°F
Dewpoint
13°C / 55°F
Humidity
64%
Altimeter
29.93" Hg
Pressure
1013.52 hPa
Previous

2 hours ago

KMUI 140556Z AUTO 33005KT 10SM CLR 22/13 A2994 RMK AO2 SLP138 T02190130 10268 20214 51005
Observed
Jul-14 @ 05:56 UTC
Wind
  • 330° at 5 KTS
Visibility
10 SM
Flight Rules
VFR
Cloud Levels
  • Clear skies
Temperature
22°C / 72°F
Dewpoint
13°C / 55°F
Humidity
57%
Altimeter
29.94" Hg
Pressure
1013.92 hPa
Previous

3 hours ago

KMUI 140456Z AUTO 33007KT 10SM CLR 23/13 A2993 RMK AO2 SLP134 T02280127 402920185
Observed
Jul-14 @ 04:56 UTC
Wind
  • 330° at 7 KTS
Visibility
10 SM
Flight Rules
VFR
Cloud Levels
  • Clear skies
Dewpoint
13°C / 55°F
Humidity
53%
Altimeter
29.93" Hg
Pressure
1013.52 hPa